createdAt,value
2018-12-11T00:00:51.261Z,1.90
2018-12-11T00:03:19.415Z,1.70
2018-12-11T00:05:47.602Z,1.33
2018-12-11T00:08:15.879Z,1.60
2018-12-11T00:10:44.067Z,1.60
2018-12-11T00:13:12.376Z,1.57
2018-12-11T00:15:40.510Z,1.03
2018-12-11T00:18:08.684Z,1.77
2018-12-11T00:20:36.825Z,1.10
2018-12-11T00:23:05.200Z,1.70
2018-12-11T00:25:33.516Z,1.20
2018-12-11T00:28:01.759Z,1.80
2018-12-11T00:30:29.903Z,1.40
2018-12-11T00:32:58.054Z,1.60
2018-12-11T00:35:26.258Z,1.70
2018-12-11T00:37:54.560Z,1.30
2018-12-11T00:40:22.706Z,1.70
2018-12-11T00:42:50.916Z,1.20
2018-12-11T00:45:19.067Z,1.87
2018-12-11T00:47:47.963Z,1.00
2018-12-11T00:51:19.215Z,1.10
2018-12-11T00:53:47.438Z,1.17
2018-12-11T00:56:15.656Z,0.70
2018-12-11T00:58:43.972Z,1.40
2018-12-11T01:01:12.131Z,1.30
2018-12-11T01:03:41.174Z,1.10
2018-12-11T01:06:09.463Z,1.00
2018-12-11T01:08:38.475Z,1.40
2018-12-11T01:11:06.786Z,0.90
2018-12-11T01:13:36.845Z,0.70
2018-12-11T01:16:08.219Z,1.02
2018-12-11T01:18:36.596Z,1.13
2018-12-11T01:21:04.886Z,1.60
2018-12-11T01:23:33.026Z,1.47
2018-12-11T01:26:01.172Z,1.50
2018-12-11T01:28:30.106Z,1.30
2018-12-11T01:30:58.232Z,1.07
2018-12-11T01:33:26.447Z,1.10
2018-12-11T01:35:54.588Z,1.10
2018-12-11T01:38:22.991Z,1.53
2018-12-11T01:40:51.133Z,1.70
2018-12-11T01:43:19.272Z,0.90
2018-12-11T01:45:47.432Z,1.17
2018-12-11T01:48:15.747Z,1.20
2018-12-11T01:50:43.973Z,1.30
2018-12-11T01:53:12.295Z,1.40
2018-12-11T01:55:40.502Z,1.20
2018-12-11T01:58:08.795Z,1.77
2018-12-11T02:00:37.000Z,1.40
2018-12-11T02:03:05.199Z,1.50
2018-12-11T02:05:33.395Z,1.53
2018-12-11T02:08:01.582Z,1.57
2018-12-11T02:10:29.876Z,1.73
2018-12-11T02:12:58.125Z,1.60
2018-12-11T02:15:26.239Z,1.63
2018-12-11T02:17:54.501Z,1.50
2018-12-11T02:20:22.706Z,1.10
2018-12-11T02:22:50.912Z,2.17
2018-12-11T02:25:19.131Z,1.27
2018-12-11T02:27:47.474Z,1.43
2018-12-11T02:30:15.616Z,1.20
2018-12-11T02:32:43.748Z,2.00
2018-12-11T02:35:11.983Z,1.20
2018-12-11T02:37:40.364Z,1.40
2018-12-11T02:40:08.639Z,1.17
2018-12-11T02:42:36.923Z,1.17
2018-12-11T02:45:05.801Z,1.43
2018-12-11T02:47:34.284Z,1.47
2018-12-11T02:50:02.403Z,1.30
2018-12-11T02:52:30.571Z,1.27
2018-12-11T02:54:59.252Z,1.20
2018-12-11T02:57:27.523Z,1.10
2018-12-11T02:59:55.758Z,1.27
2018-12-11T03:02:23.909Z,1.30
2018-12-11T03:04:52.113Z,1.20
2018-12-11T03:07:20.449Z,1.30
2018-12-11T03:09:48.603Z,1.20
2018-12-11T03:12:16.723Z,1.37
2018-12-11T03:14:44.984Z,1.20
2018-12-11T03:17:13.516Z,1.37
2018-12-11T03:19:41.667Z,0.90
2018-12-11T03:22:09.890Z,1.37
2018-12-11T03:24:38.055Z,1.20
2018-12-11T03:27:06.704Z,1.03
2018-12-11T03:29:34.948Z,1.40
2018-12-11T03:32:03.428Z,1.43
2018-12-11T03:34:31.686Z,1.57
2018-12-11T03:36:59.980Z,1.47
2018-12-11T03:39:28.135Z,1.40
2018-12-11T03:41:56.380Z,1.30
2018-12-11T03:44:24.618Z,1.32
2018-12-11T03:46:53.265Z,1.20
2018-12-11T03:49:21.595Z,1.20
2018-12-11T03:51:49.800Z,1.30
2018-12-11T03:54:24.428Z,2.00
2018-12-11T03:56:52.551Z,1.53
2018-12-11T03:59:20.753Z,1.20
2018-12-11T04:01:49.037Z,1.80
2018-12-11T04:04:17.218Z,1.60
2018-12-11T04:06:45.357Z,1.60
2018-12-11T04:09:13.740Z,1.20
2018-12-11T04:11:42.308Z,1.60
2018-12-11T04:14:10.501Z,1.47
2018-12-11T04:16:38.714Z,1.30
2018-12-11T04:19:07.124Z,0.93
2018-12-11T04:21:35.266Z,0.80
2018-12-11T04:24:03.585Z,1.27
2018-12-11T04:26:31.711Z,1.13
2018-12-11T04:28:59.850Z,1.10
2018-12-11T04:31:27.999Z,1.13
2018-12-11T04:33:56.237Z,1.00
2018-12-11T04:36:25.297Z,0.90
2018-12-11T04:38:54.612Z,1.00
2018-12-11T04:41:22.836Z,0.68
2018-12-11T04:43:51.033Z,1.35
2018-12-11T04:46:19.226Z,1.10
2018-12-11T04:48:47.509Z,1.00
2018-12-11T04:51:15.789Z,1.60
2018-12-11T04:53:44.026Z,0.97
2018-12-11T04:56:12.310Z,1.53
2018-12-11T04:58:40.452Z,1.00
2018-12-11T05:01:08.695Z,1.33
2018-12-11T05:03:36.894Z,1.30
2018-12-11T05:06:05.167Z,1.30
2018-12-11T05:08:34.007Z,1.73
2018-12-11T05:11:02.161Z,1.20
2018-12-11T05:13:30.320Z,1.10
2018-12-11T05:15:58.452Z,1.07
2018-12-11T05:18:26.765Z,1.20
2018-12-11T05:20:54.926Z,1.27
2018-12-11T05:23:23.078Z,1.37
2018-12-11T05:25:51.297Z,1.23
2018-12-11T05:28:19.502Z,1.00
2018-12-11T05:30:47.661Z,1.13
2018-12-11T05:33:15.891Z,1.03
2018-12-11T05:35:45.339Z,1.20
2018-12-11T05:38:13.752Z,1.17
2018-12-11T05:40:42.047Z,0.93
2018-12-11T05:43:10.458Z,0.97
2018-12-11T05:45:39.000Z,0.77
2018-12-11T05:48:07.358Z,0.80
2018-12-11T05:50:36.279Z,0.97
2018-12-11T05:53:04.493Z,1.02
2018-12-11T05:55:32.724Z,0.73
2018-12-11T05:58:01.054Z,1.20
2018-12-11T06:00:29.303Z,0.97
2018-12-11T06:02:57.753Z,0.90
2018-12-11T06:05:25.954Z,1.00
2018-12-11T06:07:54.102Z,1.15
2018-12-11T06:10:22.310Z,1.40
2018-12-11T06:12:51.060Z,1.33
2018-12-11T06:15:19.200Z,0.80
2018-12-11T06:17:47.538Z,1.07
2018-12-11T06:20:15.815Z,1.23
2018-12-11T06:22:44.016Z,1.20
2018-12-11T06:25:12.194Z,1.10
2018-12-11T06:27:40.578Z,1.17
2018-12-11T06:30:09.839Z,1.50
2018-12-11T06:32:38.048Z,1.00
2018-12-11T06:35:06.282Z,1.00
2018-12-11T06:37:34.495Z,1.20
2018-12-11T06:40:02.712Z,1.20
2018-12-11T06:42:30.916Z,0.90
2018-12-11T06:44:59.040Z,1.20
2018-12-11T06:47:27.401Z,1.17
2018-12-11T06:49:55.610Z,1.03
2018-12-11T06:52:24.192Z,0.97
2018-12-11T06:54:52.325Z,1.23
2018-12-11T06:57:20.478Z,0.80
2018-12-11T06:59:48.670Z,0.73
2018-12-11T07:02:16.825Z,1.17
2018-12-11T07:04:45.077Z,1.30
2018-12-11T07:07:13.216Z,1.30
2018-12-11T07:09:41.378Z,1.13
2018-12-11T07:12:09.596Z,1.43
2018-12-11T07:14:37.726Z,1.20
2018-12-11T07:17:05.894Z,1.23
2018-12-11T07:19:34.149Z,1.00
2018-12-11T07:22:02.389Z,1.67
2018-12-11T07:24:30.573Z,1.12
2018-12-11T07:26:58.734Z,1.50
2018-12-11T07:29:26.859Z,1.27
2018-12-11T07:31:55.070Z,1.17
2018-12-11T07:34:23.401Z,1.23
2018-12-11T07:36:52.132Z,1.47
2018-12-11T07:39:20.286Z,1.23
2018-12-11T07:41:48.470Z,1.37
2018-12-11T07:44:16.631Z,1.10
2018-12-11T07:46:44.796Z,0.93
2018-12-11T07:49:13.063Z,1.75
2018-12-11T07:51:41.181Z,1.50
2018-12-11T07:54:09.277Z,1.50
2018-12-11T07:56:37.476Z,1.03
2018-12-11T07:59:05.853Z,1.33
2018-12-11T08:01:34.185Z,1.20
2018-12-11T08:04:02.315Z,1.00
2018-12-11T08:06:30.532Z,1.33
2018-12-11T08:08:58.847Z,1.47
2018-12-11T08:11:27.095Z,1.30
2018-12-11T08:13:55.276Z,1.45
2018-12-11T08:16:23.890Z,1.72
2018-12-11T08:18:52.724Z,1.33
2018-12-11T08:21:20.851Z,1.50
2018-12-11T08:23:49.019Z,1.50
2018-12-11T08:26:17.247Z,1.25
2018-12-11T08:28:45.498Z,1.43
2018-12-11T08:31:13.797Z,1.17
2018-12-11T08:33:42.017Z,1.30
2018-12-11T08:36:10.316Z,1.50
2018-12-11T08:38:38.566Z,0.90
2018-12-11T08:41:06.694Z,0.90
2018-12-11T08:43:34.855Z,1.73
2018-12-11T08:46:03.003Z,1.30
2018-12-11T08:48:31.317Z,1.13
2018-12-11T08:50:59.448Z,1.10
2018-12-11T08:53:27.973Z,1.07
2018-12-11T08:55:56.123Z,1.00
2018-12-11T08:58:24.254Z,1.07
2018-12-11T09:00:52.424Z,1.50
2018-12-11T09:03:20.985Z,0.75
2018-12-11T09:05:49.145Z,1.90
2018-12-11T09:08:17.278Z,1.40
2018-12-11T09:10:45.438Z,0.93
2018-12-11T09:13:13.651Z,1.30
2018-12-11T09:15:41.795Z,1.37
2018-12-11T09:18:10.229Z,1.20
2018-12-11T09:20:38.439Z,1.12
2018-12-11T09:23:06.584Z,1.23
2018-12-11T09:25:34.727Z,1.50
2018-12-11T09:28:03.129Z,1.43
2018-12-11T09:30:31.398Z,1.37
2018-12-11T09:32:59.630Z,1.33
2018-12-11T09:35:27.870Z,1.63
2018-12-11T09:37:56.226Z,1.30
2018-12-11T09:40:24.712Z,1.23
2018-12-11T09:42:53.145Z,1.37
2018-12-11T09:45:21.305Z,1.47
2018-12-11T09:47:49.456Z,1.53
2018-12-11T09:50:17.674Z,1.20
2018-12-11T09:52:45.805Z,1.40
2018-12-11T09:55:14.155Z,1.33
2018-12-11T09:57:42.440Z,1.40
2018-12-11T10:00:10.805Z,1.22
2018-12-11T10:02:38.924Z,1.60
2018-12-11T10:05:07.215Z,1.60
2018-12-11T10:07:35.524Z,1.10
2018-12-11T10:10:03.929Z,1.30
2018-12-11T10:12:32.297Z,1.50
2018-12-11T10:15:00.433Z,1.50
2018-12-11T10:17:28.855Z,2.33
2018-12-11T10:19:57.126Z,1.40
2018-12-11T10:22:25.426Z,1.40
2018-12-11T10:24:53.554Z,0.90
2018-12-11T10:27:21.955Z,1.33
2018-12-11T10:29:50.319Z,1.37
2018-12-11T10:32:18.503Z,1.30
2018-12-11T10:34:46.736Z,1.22
2018-12-11T10:37:15.045Z,1.40
2018-12-11T10:39:43.360Z,1.50
2018-12-11T10:42:11.504Z,1.07
2018-12-11T10:44:39.639Z,1.37
2018-12-11T10:47:07.923Z,1.60
2018-12-11T10:49:36.126Z,1.23
2018-12-11T10:52:04.372Z,1.03
2018-12-11T10:54:32.590Z,1.27
2018-12-11T10:57:00.719Z,1.40
2018-12-11T10:59:28.880Z,1.40
2018-12-11T11:01:59.147Z,1.33
2018-12-11T11:04:27.341Z,1.30
2018-12-11T11:06:55.486Z,1.07
2018-12-11T11:09:23.613Z,1.27
2018-12-11T11:11:51.820Z,1.37
2018-12-11T11:14:19.927Z,1.37
2018-12-11T11:16:48.155Z,1.83
2018-12-11T11:19:16.476Z,1.30
2018-12-11T11:21:44.602Z,1.80
2018-12-11T11:24:12.744Z,1.60
2018-12-11T11:26:40.956Z,1.63
2018-12-11T11:29:09.138Z,1.10
2018-12-11T11:31:37.283Z,1.70
2018-12-11T11:34:05.506Z,1.60
2018-12-11T11:36:33.771Z,1.50
2018-12-11T11:39:02.074Z,1.27
2018-12-11T11:41:30.360Z,2.00
2018-12-11T11:43:58.501Z,1.77
2018-12-11T11:46:27.361Z,1.37
2018-12-11T11:48:55.619Z,2.10
2018-12-11T11:51:23.734Z,1.27
2018-12-11T11:53:51.888Z,1.20
2018-12-11T11:56:20.123Z,1.37
2018-12-11T11:58:48.456Z,1.70
2018-12-11T12:01:17.301Z,1.43
2018-12-11T12:03:45.472Z,1.40
2018-12-11T12:06:13.592Z,1.40
2018-12-11T12:08:41.768Z,1.10
2018-12-11T12:11:09.917Z,1.40
2018-12-11T12:13:38.069Z,1.57
2018-12-11T12:16:06.277Z,1.40
2018-12-11T12:18:34.550Z,1.40
2018-12-11T12:21:02.719Z,1.73
2018-12-11T12:23:30.971Z,1.67
2018-12-11T12:25:59.104Z,1.70
2018-12-11T12:28:27.525Z,1.17
2018-12-11T12:30:58.164Z,1.03
2018-12-11T12:33:26.365Z,1.13
2018-12-11T12:35:54.685Z,1.13
2018-12-11T12:38:24.956Z,1.63
2018-12-11T12:40:53.408Z,1.30
2018-12-11T12:43:21.608Z,1.60
2018-12-11T12:45:49.757Z,1.20
2018-12-11T12:48:17.917Z,1.10
2018-12-11T12:50:46.075Z,1.77
2018-12-11T12:53:14.258Z,1.13
2018-12-11T12:55:42.389Z,1.27
2018-12-11T12:58:10.559Z,1.07
2018-12-11T13:00:38.679Z,1.10
2018-12-11T13:03:06.838Z,1.13
2018-12-11T13:05:35.006Z,1.47
2018-12-11T13:08:03.334Z,1.30
2018-12-11T13:10:31.625Z,1.50
2018-12-11T13:13:00.314Z,1.10
2018-12-11T13:15:28.461Z,1.27
2018-12-11T13:17:57.367Z,1.60
2018-12-11T13:20:25.490Z,1.57
2018-12-11T13:22:53.670Z,1.37
2018-12-11T13:25:23.408Z,1.50
2018-12-11T13:27:51.747Z,1.33
2018-12-11T13:30:20.286Z,1.07
2018-12-11T13:32:48.423Z,1.30
2018-12-11T13:35:16.646Z,1.37
2018-12-11T13:37:44.848Z,1.43
2018-12-11T13:40:13.071Z,1.37
2018-12-11T13:42:41.225Z,1.30
2018-12-11T13:45:09.634Z,1.35
2018-12-11T13:47:38.392Z,1.50
2018-12-11T13:50:06.808Z,1.30
2018-12-11T13:52:36.323Z,1.30
2018-12-11T13:55:04.737Z,1.47
2018-12-11T13:57:33.892Z,1.30
2018-12-11T14:00:03.682Z,1.77
2018-12-11T14:02:31.829Z,1.17
2018-12-11T14:05:00.024Z,1.80
2018-12-11T14:07:28.465Z,1.10
2018-12-11T14:09:56.684Z,1.50
2018-12-11T14:12:25.120Z,1.93
2018-12-11T14:14:53.394Z,2.00
2018-12-11T14:17:21.733Z,1.50
2018-12-11T14:19:50.003Z,1.70
2018-12-11T14:22:18.168Z,1.70
2018-12-11T14:24:46.308Z,1.10
2018-12-11T14:27:14.595Z,1.63
2018-12-11T14:29:42.732Z,1.33
2018-12-11T14:32:11.002Z,1.73
2018-12-11T14:34:39.220Z,0.80
2018-12-11T14:37:07.473Z,1.70
2018-12-11T14:39:35.684Z,1.60
2018-12-11T14:42:03.980Z,1.60
2018-12-11T14:44:32.126Z,1.30
2018-12-11T14:47:00.282Z,1.50
2018-12-11T14:49:28.521Z,1.50
2018-12-11T14:51:56.876Z,2.07
2018-12-11T14:54:25.604Z,2.00
2018-12-11T14:56:53.719Z,1.43
2018-12-11T14:59:21.943Z,1.80
2018-12-11T15:01:50.930Z,1.70
2018-12-11T15:04:19.742Z,1.50
2018-12-11T15:06:47.955Z,1.60
2018-12-11T15:09:21.454Z,1.87
2018-12-11T15:11:49.618Z,1.20
2018-12-11T15:14:17.770Z,1.57
2018-12-11T15:16:45.934Z,1.33
2018-12-11T15:19:14.161Z,1.63
2018-12-11T15:21:42.304Z,1.13
2018-12-11T15:24:10.431Z,1.03
2018-12-11T15:26:38.615Z,1.20
2018-12-11T15:29:06.812Z,1.20
2018-12-11T15:31:34.946Z,1.57
2018-12-11T15:34:03.100Z,1.37
2018-12-11T15:36:32.419Z,1.40
2018-12-11T15:39:00.755Z,1.10
2018-12-11T15:41:28.996Z,1.50
2018-12-11T15:43:57.138Z,1.40
2018-12-11T15:46:25.668Z,1.47
2018-12-11T15:48:53.821Z,1.17
2018-12-11T15:51:22.042Z,1.07
2018-12-11T15:53:50.193Z,1.40
2018-12-11T15:56:18.322Z,1.30
2018-12-11T15:58:46.579Z,1.67
2018-12-11T16:01:14.772Z,1.43
2018-12-11T16:03:42.905Z,1.50
2018-12-11T16:06:11.045Z,1.40
2018-12-11T16:08:39.649Z,1.60
2018-12-11T16:11:08.194Z,1.63
2018-12-11T16:13:37.352Z,2.00
2018-12-11T16:16:06.468Z,1.57
2018-12-11T16:18:34.829Z,2.00
2018-12-11T16:21:03.059Z,1.40
2018-12-11T16:23:34.569Z,1.40
2018-12-11T16:26:05.861Z,1.30
2018-12-11T16:28:37.063Z,1.60
2018-12-11T16:31:05.891Z,1.37
2018-12-11T16:33:34.323Z,2.03
2018-12-11T16:36:02.452Z,1.50
2018-12-11T16:38:35.694Z,1.67
2018-12-11T16:41:07.402Z,1.47
2018-12-11T16:46:20.594Z,1.33
2018-12-11T16:48:49.929Z,1.90
2018-12-11T16:51:18.447Z,1.90
2018-12-11T16:53:46.667Z,1.90
2018-12-11T16:56:21.610Z,1.70
2018-12-11T16:58:50.782Z,1.87
2018-12-11T17:01:19.766Z,1.90
2018-12-11T17:03:48.386Z,1.73
2018-12-11T17:06:16.593Z,1.90
2018-12-11T17:08:44.767Z,1.90
2018-12-11T17:11:12.909Z,2.03
2018-12-11T17:13:41.126Z,2.30
2018-12-11T17:16:09.770Z,2.40
2018-12-11T17:18:38.716Z,1.90
2018-12-11T17:21:07.051Z,2.00
2018-12-11T17:23:35.188Z,2.87
2018-12-11T17:26:03.413Z,2.93
2018-12-11T17:28:31.847Z,2.40
2018-12-11T17:30:59.984Z,2.07
2018-12-11T17:33:28.117Z,2.00
2018-12-11T17:35:56.594Z,2.23
2018-12-11T17:38:26.410Z,2.10
2018-12-11T17:40:54.550Z,2.50
2018-12-11T17:43:22.784Z,2.00
2018-12-11T17:45:50.946Z,1.90
2018-12-11T17:48:19.585Z,2.17
2018-12-11T17:50:48.078Z,2.23
2018-12-11T17:53:16.248Z,3.40
2018-12-11T17:55:45.054Z,19.70
2018-12-11T17:58:13.360Z,13.40
2018-12-11T18:00:41.487Z,7.93
2018-12-11T18:03:10.360Z,7.63
2018-12-11T18:05:38.522Z,6.27
2018-12-11T18:08:06.871Z,4.73
2018-12-11T18:10:35.009Z,4.97
2018-12-11T18:13:05.949Z,4.00
2018-12-11T18:15:34.099Z,17.47
2018-12-11T18:18:03.140Z,14.70
2018-12-11T18:20:31.983Z,7.53
2018-12-11T18:23:33.718Z,52.77
2018-12-11T18:26:02.255Z,40.28
2018-12-11T18:28:30.555Z,32.03
2018-12-11T18:30:58.806Z,19.27
2018-12-11T18:33:27.077Z,25.97
2018-12-11T18:35:56.035Z,20.30
2018-12-11T18:38:25.017Z,13.23
2018-12-11T18:40:53.174Z,9.60
2018-12-11T18:43:21.332Z,6.77
2018-12-11T18:45:52.122Z,6.00
2018-12-11T18:48:24.705Z,8.03
2018-12-11T18:50:52.845Z,9.47
2018-12-11T18:53:21.766Z,7.37
2018-12-11T18:55:50.650Z,10.78
2018-12-11T18:58:21.812Z,7.60
2018-12-11T19:00:50.014Z,5.67
2018-12-11T19:03:18.372Z,10.53
2018-12-11T19:05:47.238Z,8.90
2018-12-11T19:08:15.476Z,7.00
2018-12-11T19:10:43.633Z,6.57
2018-12-11T19:13:12.050Z,7.07
2018-12-11T19:15:40.406Z,7.87
2018-12-11T19:18:08.889Z,6.57
2018-12-11T19:20:38.032Z,7.07
2018-12-11T19:29:16.309Z,5.03
2018-12-11T19:31:45.521Z,4.13
2018-12-11T19:34:14.103Z,4.47
2018-12-11T19:36:43.206Z,4.50
2018-12-11T19:39:12.257Z,4.73
2018-12-11T19:41:40.474Z,4.37
2018-12-11T19:44:08.702Z,4.30
2018-12-11T19:46:38.779Z,4.30
2018-12-11T19:49:12.368Z,4.07
2018-12-11T19:51:43.745Z,4.27
2018-12-11T19:54:13.981Z,4.33
2018-12-11T19:56:55.598Z,3.90
2018-12-11T19:59:23.862Z,4.60
2018-12-11T20:01:53.618Z,4.80
2018-12-11T20:04:22.188Z,4.90
2018-12-11T20:06:50.387Z,4.42
2018-12-11T20:09:19.574Z,4.33
2018-12-11T20:11:47.723Z,5.20
2018-12-11T20:14:16.002Z,4.73
2018-12-11T20:16:46.507Z,5.07
2018-12-11T20:19:15.243Z,4.93
2018-12-11T20:21:43.462Z,4.27
2018-12-11T20:24:11.629Z,4.57
2018-12-11T20:26:39.854Z,4.57
2018-12-11T20:29:08.001Z,4.43
2018-12-11T20:31:36.313Z,4.40
2018-12-11T20:34:04.725Z,4.60
2018-12-11T20:36:32.881Z,4.60
2018-12-11T20:39:01.135Z,4.50
2018-12-11T20:41:29.369Z,3.93
2018-12-11T20:43:57.833Z,4.03
2018-12-11T20:46:26.060Z,3.90
2018-12-11T20:48:54.765Z,4.17
2018-12-11T20:51:22.910Z,4.40
2018-12-11T20:53:51.521Z,4.10
2018-12-11T20:56:20.052Z,4.53
2018-12-11T20:58:48.309Z,4.17
2018-12-11T21:01:16.592Z,3.93
2018-12-11T21:03:44.925Z,4.90
2018-12-11T21:06:13.274Z,4.40
2018-12-11T21:08:42.452Z,4.63
2018-12-11T21:11:10.649Z,4.80
2018-12-11T21:13:38.832Z,4.30
2018-12-11T21:16:10.942Z,4.13
2018-12-11T21:18:37.831Z,4.30
2018-12-11T21:21:06.156Z,4.43
2018-12-11T21:23:34.418Z,4.60
2018-12-11T21:26:02.573Z,3.90
2018-12-11T21:28:30.908Z,4.17
2018-12-11T21:30:59.115Z,5.00
2018-12-11T21:33:27.927Z,4.03
2018-12-11T21:35:56.390Z,4.37
2018-12-11T21:38:24.617Z,4.20
2018-12-11T21:40:52.747Z,3.90
2018-12-11T21:43:20.931Z,3.87
2018-12-11T21:45:49.149Z,3.90
2018-12-11T21:48:17.283Z,4.70
2018-12-11T21:50:45.510Z,4.40
2018-12-11T21:53:13.650Z,4.40
2018-12-11T21:55:41.893Z,4.40
2018-12-11T21:58:10.568Z,4.10
2018-12-11T22:00:38.721Z,5.10
2018-12-11T22:03:07.031Z,4.20
2018-12-11T22:05:35.223Z,3.87
2018-12-11T22:08:03.456Z,3.80
2018-12-11T22:10:31.666Z,4.37
2018-12-11T22:12:59.789Z,4.07
2018-12-11T22:15:28.005Z,4.30
2018-12-11T22:17:56.224Z,3.63
2018-12-11T22:20:24.619Z,4.20
2018-12-11T22:22:52.771Z,4.27
2018-12-11T22:25:20.935Z,4.17
2018-12-11T22:27:49.865Z,4.60
